Zagreb — 9AA5910 — position and weather

sailwx.info

Track history (hours):
 
Tides and Currents Weather Stations Pressure Air Temp Water Temp Dewpoint Dewpoint Depression Visibility Wind Speed Wind Dir Waves Ship Positions

Zagreb

Last reported at 2014-Sep-20 09:19 UTC. Time now 2014-Sep-20 09:57 UTC.
Position N 53°34' W 003°24'.

Length 229 m; draft 12.5 m.

Type: Cargo ship. MMSI: 238249000.

Date/timePositionNaut miles runAvg speedWind from/ knotsBaromVisibWave heightAir tempDewpointWater temp
2014-Sep-20 09:19N 53°34' W 003°24'0 0.0
2014-Sep-20 08:28N 53°34' W 003°24'0 0.0
2014-Sep-20 07:25N 53°34' W 003°24'0 0.0
2014-Sep-20 06:22N 53°34' W 003°24'0 0.0
2014-Sep-20 05:28N 53°34' W 003°24'0 0.0
2014-Sep-20 04:31N 53°34' W 003°24'0 0.1
2014-Sep-20 00:28N 53°34' W 003°24'0 0.0
2014-Sep-19 22:10N 53°34' W 003°24'0 0.3
2014-Sep-19 21:28N 53°34' W 003°24'0 0.0
2014-Sep-19 20:22N 53°34' W 003°24'0 0.1
2014-Sep-19 19:28N 53°34' W 003°24'0 0.0
2014-Sep-19 18:28N 53°34' W 003°24'0 0.0
2014-Sep-19 17:31N 53°34' W 003°24'0 0.0
2014-Sep-19 16:28N 53°34' W 003°24'0 0.0
2014-Sep-19 15:28N 53°34' W 003°24'0 0.1
2014-Sep-19 12:31N 53°34' W 003°24'0 0.0
2014-Sep-19 11:28N 53°34' W 003°24'0 0.0
2014-Sep-19 10:31N 53°34' W 003°24'0 0.0
2014-Sep-19 09:28N 53°34' W 003°24'0 0.1
2014-Sep-19 08:10N 53°34' W 003°24'0 0.1
2014-Sep-19 07:16N 53°34' W 003°24'0 0.1
2014-Sep-19 06:31N 53°34' W 003°24'2 2.5
2014-Sep-19 05:33N 53°32' W 003°26'1211.7
2014-Sep-19 04:32N 53°32' W 003°46'5811.8
2014-Sep-18 23:33N 54°07' W 005°05'1212.3
2014-Sep-18 22:33N 54°19' W 005°09'1212.3
2014-Sep-18 21:33N 54°31' W 005°14'1212.3
2014-Sep-18 20:33N 54°43' W 005°19'1312.7
2014-Sep-18 19:33N 54°54' W 005°31'1713.4
2014-Sep-18 18:15N 55°08' W 005°49'1014.2
2014-Sep-18 17:33N 55°16' W 005°59'1413.7
2014-Sep-18 16:33N 55°23' W 006°20'1313.3
2014-Sep-18 15:33N 55°31' W 006°38'1413.9
2014-Sep-18 14:33N 55°42' W 006°53'14811.4
2014-Sep-18 01:33N 58°08' W 005°60'1312.7
2014-Sep-18 00:33N 58°17' W 005°44'3812.2
2014-Sep-17 21:27N 58°43' W 004°50'1213.2
2014-Sep-17 20:33N 58°43' W 004°27'1312.9
2014-Sep-17 19:33N 58°43' W 004°02'1312.6
2014-Sep-17 18:33N 58°43' W 003°38'1211.8
2014-Sep-17 17:32N 58°43' W 003°14'9 9.1
2014-Sep-17 16:33N 58°40' W 002°58'40212.5
2014-Sep-16 08:21N 57°50' E 009°40'1113.1
2014-Sep-16 07:32N 57°50' E 009°60'1413.7
2014-Sep-16 06:31N 57°50' E 010°26'1313.2
2014-Sep-16 05:33N 57°47' E 010°49'1312.9
2014-Sep-16 04:33N 57°38' E 011°07'1312.9
2014-Sep-16 03:33N 57°29' E 011°24'1312.7
2014-Sep-16 02:33N 57°18' E 011°33'1312.5
2014-Sep-16 01:33N 57°06' E 011°41'1312.3
2014-Sep-16 00:31N 56°54' E 011°49'1111.3
2014-Sep-15 23:32N 56°43' E 011°52'1311.9
2014-Sep-15 22:25N 56°32' E 011°39'11510.5
2014-Sep-15 11:32N 54°40' E 010°48'1212.6
2014-Sep-15 10:33N 54°36' E 011°08'1313.1
2014-Sep-15 09:33N 54°31' E 011°29'1313.1
2014-Sep-15 08:33N 54°26' E 011°49'1312.5
2014-Sep-15 07:33N 54°27' E 012°11'1110.5
2014-Sep-15 06:33N 54°37' E 012°18'8 8.5
2014-Sep-15 05:33N 54°41' E 012°30'10 9.7
2014-Sep-15 04:31N 54°47' E 012°45'1212.8
2014-Sep-15 03:33N 54°52' E 013°04'1312.8
2014-Sep-15 02:33N 54°56' E 013°25'1312.7
2014-Sep-15 01:33N 55°00' E 013°46'1212.3
2014-Sep-15 00:33N 55°05' E 014°06'1312.8
2014-Sep-14 23:33N 55°15' E 014°20'1312.6
2014-Sep-14 22:33N 55°25' E 014°34'1312.6
2014-Sep-14 21:33N 55°31' E 014°53'1313.0
2014-Sep-14 20:33N 55°37' E 015°14'1812.7
2014-Sep-14 19:07N 55°43' E 015°44'4612.7
2014-Sep-14 15:32N 55°54' E 017°03'1312.8
2014-Sep-14 14:32N 55°57' E 017°25'1312.8
2014-Sep-14 13:33N 56°01' E 017°47'1412.8
2014-Sep-14 12:28N 56°08' E 018°07'1512.9
2014-Sep-14 11:16N 56°17' E 018°31'1113.0
2014-Sep-14 10:26N 56°23' E 018°47'1112.9
2014-Sep-14 09:32N 56°33' E 018°57'1312.9
2014-Sep-14 08:33N 56°44' E 019°08'1512.9
2014-Sep-14 07:26N 56°57' E 019°21'1213.1
2014-Sep-14 06:29N 57°08' E 019°32'1613.1
2014-Sep-14 05:17N 57°22' E 019°46'15612.8
2014-Sep-13 17:05N 59°31' E 022°33'713.0
2014-Sep-13 16:33N 59°33' E 022°46'1413.2
2014-Sep-13 15:29N 59°37' E 023°12'1213.0
2014-Sep-13 14:33N 59°40' E 023°35'1313.1
2014-Sep-13 13:33N 59°44' E 024°00'1313.2
2014-Sep-13 12:33N 59°47' E 024°26'5313.0
2014-Sep-13 08:29N 59°58' E 026°09'1213.0
2014-Sep-13 07:33N 60°01' E 026°32'1412.9
2014-Sep-13 06:29N 59°59' E 026°59'  
Track history (hours):
 
Tides and Currents Weather Stations Pressure Air Temp Water Temp Dewpoint Dewpoint Depression Visibility Wind Speed Wind Dir Waves Ship Positions

Zagreb

Last reported at 2014-Sep-20 09:19 UTC. Time now 2014-Sep-20 09:57 UTC.
Position N 53°34' W 003°24'.

Length 229 m; draft 12.5 m.

Type: Cargo ship. MMSI: 238249000.

Date/timePositionNaut miles runAvg speedWind from/ knotsBaromVisibWave heightAir tempDewpointWater temp
2014-Sep-20 09:19N 53°34' W 003°24'0 0.0
2014-Sep-20 08:28N 53°34' W 003°24'0 0.0
2014-Sep-20 07:25N 53°34' W 003°24'0 0.0
2014-Sep-20 06:22N 53°34' W 003°24'0 0.0
2014-Sep-20 05:28N 53°34' W 003°24'0 0.0
2014-Sep-20 04:31N 53°34' W 003°24'0 0.1
2014-Sep-20 00:28N 53°34' W 003°24'0 0.0
2014-Sep-19 22:10N 53°34' W 003°24'0 0.3
2014-Sep-19 21:28N 53°34' W 003°24'0 0.0
2014-Sep-19 20:22N 53°34' W 003°24'0 0.1
2014-Sep-19 19:28N 53°34' W 003°24'0 0.0
2014-Sep-19 18:28N 53°34' W 003°24'0 0.0
2014-Sep-19 17:31N 53°34' W 003°24'0 0.0
2014-Sep-19 16:28N 53°34' W 003°24'0 0.0
2014-Sep-19 15:28N 53°34' W 003°24'0 0.1
2014-Sep-19 12:31N 53°34' W 003°24'0 0.0
2014-Sep-19 11:28N 53°34' W 003°24'0 0.0
2014-Sep-19 10:31N 53°34' W 003°24'0 0.0
2014-Sep-19 09:28N 53°34' W 003°24'0 0.1
2014-Sep-19 08:10N 53°34' W 003°24'0 0.1
2014-Sep-19 07:16N 53°34' W 003°24'0 0.1
2014-Sep-19 06:31N 53°34' W 003°24'2 2.5
2014-Sep-19 05:33N 53°32' W 003°26'1211.7
2014-Sep-19 04:32N 53°32' W 003°46'5811.8
2014-Sep-18 23:33N 54°07' W 005°05'1212.3
2014-Sep-18 22:33N 54°19' W 005°09'1212.3
2014-Sep-18 21:33N 54°31' W 005°14'1212.3
2014-Sep-18 20:33N 54°43' W 005°19'1312.7
2014-Sep-18 19:33N 54°54' W 005°31'1713.4
2014-Sep-18 18:15N 55°08' W 005°49'1014.2
2014-Sep-18 17:33N 55°16' W 005°59'1413.7
2014-Sep-18 16:33N 55°23' W 006°20'1313.3
2014-Sep-18 15:33N 55°31' W 006°38'1413.9
2014-Sep-18 14:33N 55°42' W 006°53'14811.4
2014-Sep-18 01:33N 58°08' W 005°60'1312.7
2014-Sep-18 00:33N 58°17' W 005°44'3812.2
2014-Sep-17 21:27N 58°43' W 004°50'1213.2
2014-Sep-17 20:33N 58°43' W 004°27'1312.9
2014-Sep-17 19:33N 58°43' W 004°02'1312.6
2014-Sep-17 18:33N 58°43' W 003°38'1211.8
2014-Sep-17 17:32N 58°43' W 003°14'9 9.1
2014-Sep-17 16:33N 58°40' W 002°58'40212.5
2014-Sep-16 08:21N 57°50' E 009°40'1113.1
2014-Sep-16 07:32N 57°50' E 009°60'1413.7
2014-Sep-16 06:31N 57°50' E 010°26'1313.2
2014-Sep-16 05:33N 57°47' E 010°49'1312.9
2014-Sep-16 04:33N 57°38' E 011°07'1312.9
2014-Sep-16 03:33N 57°29' E 011°24'1312.7
2014-Sep-16 02:33N 57°18' E 011°33'1312.5
2014-Sep-16 01:33N 57°06' E 011°41'1312.3
2014-Sep-16 00:31N 56°54' E 011°49'1111.3
2014-Sep-15 23:32N 56°43' E 011°52'1311.9
2014-Sep-15 22:25N 56°32' E 011°39'11510.5
2014-Sep-15 11:32N 54°40' E 010°48'1212.6
2014-Sep-15 10:33N 54°36' E 011°08'1313.1
2014-Sep-15 09:33N 54°31' E 011°29'1313.1
2014-Sep-15 08:33N 54°26' E 011°49'1312.5
2014-Sep-15 07:33N 54°27' E 012°11'1110.5
2014-Sep-15 06:33N 54°37' E 012°18'8 8.5
2014-Sep-15 05:33N 54°41' E 012°30'10 9.7
2014-Sep-15 04:31N 54°47' E 012°45'1212.8
2014-Sep-15 03:33N 54°52' E 013°04'1312.8
2014-Sep-15 02:33N 54°56' E 013°25'1312.7
2014-Sep-15 01:33N 55°00' E 013°46'1212.3
2014-Sep-15 00:33N 55°05' E 014°06'1312.8
2014-Sep-14 23:33N 55°15' E 014°20'1312.6
2014-Sep-14 22:33N 55°25' E 014°34'1312.6
2014-Sep-14 21:33N 55°31' E 014°53'1313.0
2014-Sep-14 20:33N 55°37' E 015°14'1812.7
2014-Sep-14 19:07N 55°43' E 015°44'4612.7
2014-Sep-14 15:32N 55°54' E 017°03'1312.8
2014-Sep-14 14:32N 55°57' E 017°25'1312.8
2014-Sep-14 13:33N 56°01' E 017°47'1412.8
2014-Sep-14 12:28N 56°08' E 018°07'1512.9
2014-Sep-14 11:16N 56°17' E 018°31'1113.0
2014-Sep-14 10:26N 56°23' E 018°47'1112.9
2014-Sep-14 09:32N 56°33' E 018°57'1312.9
2014-Sep-14 08:33N 56°44' E 019°08'1512.9
2014-Sep-14 07:26N 56°57' E 019°21'1213.1
2014-Sep-14 06:29N 57°08' E 019°32'1613.1
2014-Sep-14 05:17N 57°22' E 019°46'15612.8
2014-Sep-13 17:05N 59°31' E 022°33'713.0
2014-Sep-13 16:33N 59°33' E 022°46'1413.2
2014-Sep-13 15:29N 59°37' E 023°12'1213.0
2014-Sep-13 14:33N 59°40' E 023°35'1313.1
2014-Sep-13 13:33N 59°44' E 024°00'1313.2
2014-Sep-13 12:33N 59°47' E 024°26'5313.0
2014-Sep-13 08:29N 59°58' E 026°09'1213.0
2014-Sep-13 07:33N 60°01' E 026°32'1412.9
2014-Sep-13 06:29N 59°59' E 026°59'  

Dump ship's entire track history